FRSO2: Muddy Boggy Cr, Farris, OK

Data processed at Sun May 28 2017 22:38


All information presented herein is the property of the government of the United States of America and may be revised or deleted at any time without prior notice.
Dissemination of this information without the expressed written consent of the Public Affairs Office, Tulsa District U.S. Army Corps of Engineers is strictly prohibited.
These data are gathered electronically and, as presented, have not undergone any form of quality control. These data are not guaranteed to be valid or correct.
Go to home page.
Go to station list.
Go to home page.

Upstream stations:

Downstream station:
Previous Day
Next Day
Current Day
    
SHEF ID:       FRSO2     Muddy Boggy Creek near Farris, O
STATION TYPE:  

               PRECIP PRECIP(A)     STAGE  RIV-FLOW  BAT-LOAD
                   in        in        ft       cfs      volt
              Ccp-Rev   Ccp-Rev   Ccp-Rev   Ccp-Rev   Ccp-Rev
(US/Central)
05/28 00:00      ----      0.08     11.03       300     12.41
05/28 01:00      ----      0.27     11.05       303     12.41
05/28 02:00      ----      0.09     11.06       305     12.41
05/28 03:00      ----      0.03     11.04       302     12.41
05/28 04:00      ----      0.00     11.02       298     12.33
05/28 05:00      ----      0.00     11.00       295     12.33
05/28 06:00      ----      0.00     11.00       295     12.33
05/28 07:00      ----      0.00     11.01       297     12.33
05/28 08:00      ----      0.00     11.02       298     12.41
05/28 09:00      ----      0.00     11.05       303     12.41
05/28 10:00      ----      0.00     11.12       315     12.49
05/28 11:00      ----      0.00     11.56       396     12.41
05/28 12:00      ----      0.00     13.25       761     12.41
05/28 13:00      ----      0.00     15.14      1190     12.49
05/28 14:00      ----      0.00     16.66      1610     12.49
05/28 15:00      ----      0.00     17.76      1960     12.49
05/28 16:00      ----      0.00     18.56      2220     12.49
05/28 17:00      ----      0.00     19.14      2420     12.49
05/28 18:00      ----      0.00     19.53      2560     12.49
05/28 19:00      ----      0.00     19.77      2650     12.49
05/28 20:00      ----      0.00     19.86      2680     12.49
05/28 21:00      ----      0.00     19.90      2700     12.41
05/28 22:00      ----      ----      ----      ----      ----
05/28 23:00      ----      ----      ----      ----      ----